createdAt,value
2023-01-21T00:00:24.140Z,-0.30
2023-01-21T00:05:27.776Z,-0.30
2023-01-21T00:10:30.115Z,-0.30
2023-01-21T00:15:32.491Z,-0.30
2023-01-21T00:20:35.158Z,-0.30
2023-01-21T00:25:37.608Z,-0.30
2023-01-21T00:30:41.648Z,-0.30
2023-01-21T00:35:44.034Z,-0.30
2023-01-21T00:40:46.386Z,-0.30
2023-01-21T00:45:48.773Z,-0.30
2023-01-21T00:50:52.177Z,-0.40
2023-01-21T00:55:59.516Z,-0.40
2023-01-21T01:01:05.450Z,-0.40
2023-01-21T01:06:10.958Z,-0.40
2023-01-21T01:11:14.422Z,-0.40
2023-01-21T01:16:17.252Z,-0.40
2023-01-21T01:21:21.219Z,-0.40
2023-01-21T01:26:23.563Z,-0.50
2023-01-21T01:31:25.933Z,-0.50
2023-01-21T01:36:28.424Z,-0.50
2023-01-21T01:41:35.158Z,-0.10
2023-01-21T01:46:37.706Z,0.30
2023-01-21T01:51:48.351Z,-0.50
2023-01-21T01:56:54.295Z,-0.40
2023-01-21T02:02:01.199Z,-0.40
2023-01-21T02:07:04.333Z,-0.40
2023-01-21T02:12:07.285Z,-0.40
2023-01-21T02:17:30.734Z,-0.40
2023-01-21T02:22:38.952Z,-0.30
2023-01-21T02:27:49.360Z,-0.30
2023-01-21T02:33:16.578Z,-0.20
2023-01-21T02:38:40.494Z,-0.20
2023-01-21T02:43:51.935Z,-0.20
2023-01-21T02:49:04.094Z,-0.10
2023-01-21T02:54:33.484Z,-0.10
2023-01-21T02:59:37.066Z,-0.10
2023-01-21T03:05:21.207Z,-0.10
2023-01-21T03:10:37.138Z,-0.10
2023-01-21T03:16:06.604Z,0.00
2023-01-21T03:21:17.807Z,0.10
2023-01-21T03:26:27.956Z,0.10
2023-01-21T03:31:34.116Z,0.10
2023-01-21T03:36:45.168Z,0.40
2023-01-21T03:41:47.979Z,0.10
2023-01-21T03:47:02.609Z,0.10
2023-01-21T03:52:06.992Z,0.30
2023-01-21T03:57:09.395Z,0.10
2023-01-21T04:02:12.025Z,0.10
2023-01-21T04:07:15.998Z,0.10
2023-01-21T04:12:18.464Z,0.40
2023-01-21T04:17:21.033Z,0.20
2023-01-21T04:22:23.421Z,0.20
2023-01-21T04:27:25.814Z,0.20
2023-01-21T04:32:28.259Z,0.20
2023-01-21T04:37:30.750Z,0.30
2023-01-21T04:42:33.107Z,0.30
2023-01-21T04:47:35.549Z,0.20
2023-01-21T04:52:38.473Z,0.00
2023-01-21T04:57:40.875Z,0.30
2023-01-21T05:02:43.358Z,0.40
2023-01-21T05:07:46.002Z,0.50
2023-01-21T05:12:48.692Z,0.50
2023-01-21T05:17:51.106Z,0.60
2023-01-21T05:22:53.506Z,0.60
2023-01-21T05:27:56.074Z,0.50
2023-01-21T05:32:58.415Z,0.50
2023-01-21T05:38:00.836Z,0.50
2023-01-21T05:43:03.246Z,0.50
2023-01-21T05:48:06.076Z,0.50
2023-01-21T05:53:08.557Z,0.50
2023-01-21T05:58:10.973Z,0.60
2023-01-21T06:03:13.659Z,0.60
2023-01-21T06:08:16.392Z,0.50
2023-01-21T06:13:18.918Z,0.60
2023-01-21T06:18:21.351Z,0.60
2023-01-21T06:23:23.720Z,0.60
2023-01-21T06:28:26.148Z,0.60
2023-01-21T06:33:28.602Z,0.70
2023-01-21T06:38:31.102Z,0.70
2023-01-21T06:43:33.499Z,0.70
2023-01-21T06:48:36.112Z,0.80
2023-01-21T06:53:38.489Z,0.80
2023-01-21T06:58:40.957Z,0.80
2023-01-21T07:03:44.296Z,0.80
2023-01-21T07:08:47.020Z,0.90
2023-01-21T07:13:49.435Z,0.90
2023-01-21T07:18:51.934Z,0.90
2023-01-21T07:23:55.472Z,0.90
2023-01-21T07:28:59.341Z,0.90
2023-01-21T07:34:03.312Z,1.00
2023-01-21T07:39:05.698Z,1.00
2023-01-21T07:44:09.251Z,1.00
2023-01-21T07:49:17.116Z,1.10
2023-01-21T07:54:19.508Z,1.10
2023-01-21T07:59:21.936Z,1.10
2023-01-21T08:04:25.446Z,1.10
2023-01-21T08:09:28.381Z,1.10
2023-01-21T08:14:31.041Z,1.10
2023-01-21T08:19:33.364Z,1.10
2023-01-21T08:24:35.752Z,1.10
2023-01-21T08:29:38.187Z,1.10
2023-01-21T08:34:40.580Z,1.10
2023-01-21T08:39:42.992Z,1.10
2023-01-21T08:44:46.504Z,1.20
2023-01-21T08:49:51.576Z,1.20
2023-01-21T08:54:54.081Z,1.30
2023-01-21T08:59:56.435Z,1.30
2023-01-21T09:04:58.742Z,1.30
2023-01-21T09:10:03.904Z,1.30
2023-01-21T09:15:06.824Z,1.30
2023-01-21T09:20:10.028Z,1.20
2023-01-21T09:25:15.498Z,1.20
2023-01-21T09:30:18.282Z,1.30
2023-01-21T09:35:20.560Z,1.20
2023-01-21T09:40:22.998Z,1.20
2023-01-21T09:45:25.392Z,1.20
2023-01-21T09:50:27.773Z,1.20
2023-01-21T09:55:42.443Z,1.20
2023-01-21T10:01:07.115Z,1.20
2023-01-21T10:06:36.737Z,1.20
2023-01-21T10:12:19.126Z,1.20
2023-01-21T10:17:51.886Z,1.20
2023-01-21T10:23:18.005Z,1.10
2023-01-21T10:28:25.464Z,1.10
2023-01-21T10:33:31.046Z,1.10
2023-01-21T10:38:46.213Z,1.10
2023-01-21T10:44:13.088Z,1.00
2023-01-21T10:49:26.665Z,1.00
2023-01-21T10:54:31.823Z,1.10
2023-01-21T10:59:37.473Z,1.10
2023-01-21T11:04:41.656Z,1.10
2023-01-21T11:09:46.479Z,1.20
2023-01-21T11:14:53.389Z,1.20
2023-01-21T11:20:01.661Z,1.20
2023-01-21T11:25:25.409Z,1.20
2023-01-21T11:30:44.477Z,1.20
2023-01-21T11:35:53.063Z,1.20
2023-01-21T11:41:13.321Z,1.30
2023-01-21T11:46:29.775Z,1.30
2023-01-21T11:51:32.741Z,1.30
2023-01-21T11:56:36.738Z,1.20
2023-01-21T12:01:39.122Z,1.20
2023-01-21T12:06:47.504Z,1.10
2023-01-21T12:12:18.460Z,1.10
2023-01-21T12:17:44.503Z,1.10
2023-01-21T12:23:01.432Z,1.10
2023-01-21T12:28:18.153Z,1.10
2023-01-21T12:33:45.389Z,1.10
2023-01-21T12:39:08.922Z,1.10
2023-01-21T12:44:14.293Z,1.10
2023-01-21T12:49:29.399Z,1.10
2023-01-21T12:55:14.562Z,1.10
2023-01-21T13:00:31.295Z,1.00
2023-01-21T13:06:23.958Z,1.10
2023-01-21T13:11:34.444Z,1.10
2023-01-21T13:16:41.195Z,1.10
2023-01-21T13:21:52.658Z,1.10
2023-01-21T13:27:13.232Z,1.10
2023-01-21T13:32:24.674Z,1.10
2023-01-21T13:37:35.475Z,1.20
2023-01-21T13:43:05.780Z,1.30
2023-01-21T13:48:25.412Z,1.20
2023-01-21T13:53:54.515Z,1.20
2023-01-21T13:59:15.810Z,1.20
2023-01-21T14:04:46.820Z,1.10
2023-01-21T14:09:59.844Z,1.10
2023-01-21T14:15:24.364Z,1.20
2023-01-21T14:20:45.436Z,1.10
2023-01-21T14:25:59.928Z,1.10
2023-01-21T14:31:11.027Z,1.10
2023-01-21T14:36:18.965Z,1.10
2023-01-21T14:41:21.338Z,1.20
2023-01-21T14:46:33.848Z,1.10
2023-01-21T14:51:47.569Z,1.10
2023-01-21T14:57:17.296Z,1.00
2023-01-21T15:02:26.847Z,1.00
2023-01-21T15:07:34.018Z,1.00
2023-01-21T15:12:39.398Z,0.90
2023-01-21T15:17:54.115Z,0.90
2023-01-21T15:23:29.848Z,0.90
2023-01-21T15:28:47.721Z,0.90
2023-01-21T15:33:53.157Z,0.90
2023-01-21T15:39:03.470Z,0.80
2023-01-21T15:44:23.894Z,0.80
2023-01-21T15:49:52.540Z,0.90
2023-01-21T15:55:19.338Z,0.90
2023-01-21T16:00:32.891Z,0.80
2023-01-21T16:05:50.547Z,0.90
2023-01-21T16:11:18.819Z,0.90
2023-01-21T16:16:42.445Z,0.90
2023-01-21T16:21:48.973Z,0.80
2023-01-21T16:26:51.322Z,0.90
2023-01-21T16:31:59.860Z,0.90
2023-01-21T16:37:05.888Z,0.80
2023-01-21T16:42:36.974Z,0.80
2023-01-21T16:47:40.795Z,0.90
2023-01-21T16:52:44.043Z,0.90
2023-01-21T16:57:54.099Z,0.80
2023-01-21T17:03:00.627Z,0.80
2023-01-21T17:08:09.314Z,0.90
2023-01-21T17:13:16.169Z,0.80
2023-01-21T17:18:22.420Z,1.70
2023-01-21T17:23:32.172Z,0.90
2023-01-21T17:28:41.050Z,0.90
2023-01-21T17:33:44.824Z,2.00
2023-01-21T17:38:47.496Z,0.80
2023-01-21T17:43:51.635Z,0.90
2023-01-21T17:49:05.085Z,0.90
2023-01-21T17:54:16.886Z,0.90
2023-01-21T17:59:38.817Z,0.90
2023-01-21T18:04:41.752Z,0.90
2023-01-21T18:09:44.239Z,0.90
2023-01-21T18:14:47.403Z,0.90
2023-01-21T18:19:50.337Z,0.90
2023-01-21T18:24:52.733Z,0.90
2023-01-21T18:29:57.081Z,0.90
2023-01-21T18:35:00.214Z,0.90
2023-01-21T18:40:05.740Z,0.80
2023-01-21T18:45:20.774Z,0.90
2023-01-21T18:50:25.879Z,0.80
2023-01-21T18:55:29.986Z,0.90
2023-01-21T19:00:34.080Z,0.80
2023-01-21T19:05:38.478Z,0.90
2023-01-21T19:10:40.904Z,0.90
2023-01-21T19:15:43.598Z,0.90
2023-01-21T19:20:46.026Z,0.90
2023-01-21T19:25:54.095Z,0.90
2023-01-21T19:30:58.438Z,0.90
2023-01-21T19:36:10.943Z,0.90
2023-01-21T19:41:13.373Z,0.90
2023-01-21T19:46:16.772Z,0.90
2023-01-21T19:51:19.303Z,0.90
2023-01-21T19:56:24.433Z,0.90
2023-01-21T20:01:26.866Z,1.00
2023-01-21T20:06:35.054Z,1.00
2023-01-21T20:11:37.518Z,1.00
2023-01-21T20:16:48.637Z,1.00
2023-01-21T20:22:01.190Z,1.00
2023-01-21T20:27:07.734Z,1.00
2023-01-21T20:32:11.984Z,1.00
2023-01-21T20:37:16.011Z,1.00
2023-01-21T20:42:18.457Z,1.00
2023-01-21T20:47:32.650Z,1.00
2023-01-21T20:52:41.069Z,1.00
2023-01-21T20:57:43.486Z,1.00
2023-01-21T21:02:46.157Z,1.30
2023-01-21T21:07:48.664Z,1.00
2023-01-21T21:12:51.905Z,1.00
2023-01-21T21:17:54.510Z,1.00
2023-01-21T21:22:57.018Z,1.00
2023-01-21T21:27:59.575Z,1.00
2023-01-21T21:33:02.495Z,1.00
2023-01-21T21:38:13.365Z,1.80
2023-01-21T21:43:32.771Z,1.00
2023-01-21T21:48:37.873Z,1.00
2023-01-21T21:53:41.159Z,1.00
2023-01-21T21:58:44.222Z,1.00
2023-01-21T22:03:47.062Z,1.00
2023-01-21T22:08:49.649Z,1.50
2023-01-21T22:13:53.063Z,1.70
2023-01-21T22:18:56.853Z,1.00
2023-01-21T22:24:00.468Z,1.00
2023-01-21T22:29:04.032Z,1.00
2023-01-21T22:34:06.491Z,1.00
2023-01-21T22:39:08.971Z,1.00
2023-01-21T22:44:11.297Z,1.00
2023-01-21T22:49:13.809Z,1.00
2023-01-21T22:54:16.239Z,1.40
2023-01-21T22:59:18.644Z,1.00
2023-01-21T23:04:21.081Z,1.00
2023-01-21T23:09:23.622Z,1.00
2023-01-21T23:14:26.094Z,0.90
2023-01-21T23:19:28.508Z,1.00
2023-01-21T23:24:31.248Z,1.00
2023-01-21T23:29:34.007Z,1.00
2023-01-21T23:34:36.448Z,1.00
2023-01-21T23:39:39.183Z,1.00
2023-01-21T23:44:41.584Z,1.00
2023-01-21T23:49:43.973Z,1.00
2023-01-21T23:54:46.439Z,1.00
2023-01-21T23:59:48.985Z,1.00
